Time;durP1;ratioP1;P1;durP2;ratioP2;P2;SDS_P1;SDS_P2;PMS_P1;PMS_P2;Temp;Humidity;BMP_temperature;BMP_pressure;BME280_temperature;BME280_humidity;BME280_pressure;Samples;Min_cycle;Max_cycle;Signal;HPM_P1;HPM_P2
2022/06/21 00:01:14;;;;;;;6.88;3.40;;;;;;;19.71;70.19;98788.50;4937153;29;20524;-93
2022/06/21 00:03:40;;;;;;;6.15;3.50;;;;;;;19.49;70.23;98768.72;4937518;29;20031;-93
2022/06/21 00:06:05;;;;;;;3.67;3.30;;;;;;;19.45;70.14;98773.28;4921639;29;20026;-93
2022/06/21 00:08:33;;;;;;;4.80;3.40;;;;;;;19.58;69.09;98783.03;4921789;29;20050;-94
2022/06/21 00:10:58;;;;;;;7.45;3.88;;;;;;;19.49;69.53;98776.91;4921708;29;20025;-93
2022/06/21 00:13:26;;;;;;;4.30;3.42;;;;;;;19.54;69.66;98792.25;4921724;29;20521;-94
2022/06/21 00:16:03;;;;;;;6.85;3.70;;;;;;;19.56;70.44;98796.22;4937419;29;20110;-93
2022/06/21 00:18:29;;;;;;;4.97;3.65;;;;;;;19.55;70.83;98799.31;4921849;29;20027;-93
2022/06/21 00:20:54;;;;;;;6.38;3.80;;;;;;;19.39;71.09;98786.34;4937224;29;20031;-94
2022/06/21 00:23:25;;;;;;;5.95;3.83;;;;;;;19.52;71.13;98781.66;4921819;29;20047;-94
2022/06/21 00:25:51;;;;;;;5.63;3.38;;;;;;;19.53;70.97;98777.03;4937482;29;20082;-93
2022/06/21 00:28:17;;;;;;;5.13;3.47;;;;;;;19.36;71.71;98786.22;4921640;29;20485;-93
2022/06/21 00:30:42;;;;;;;9.18;3.42;;;;;;;19.32;70.05;98788.03;4921723;29;20047;-93
2022/06/21 00:33:12;;;;;;;4.40;3.33;;;;;;;19.48;69.95;98783.50;4937198;29;20485;-94
2022/06/21 00:35:38;;;;;;;5.70;3.50;;;;;;;19.54;69.56;98773.94;4921966;29;20400;-93
2022/06/21 00:38:03;;;;;;;4.65;3.60;;;;;;;19.56;69.16;98771.66;4921124;29;20043;-94
2022/06/21 00:40:32;;;;;;;5.78;3.30;;;;;;;19.56;68.10;98773.59;4937346;28;20588;-93
2022/06/21 00:43:22;;;;;;;4.63;3.13;;;;;;;19.54;68.38;98767.69;4921640;29;20035;-93
2022/06/21 00:45:48;;;;;;;6.10;3.20;;;;;;;19.46;68.56;98757.69;4939255;29;20066;-93
2022/06/21 00:48:38;;;;;;;5.43;3.28;;;;;;;19.48;68.73;98761.66;4921649;28;20509;-93
2022/06/21 00:51:07;;;;;;;5.30;3.22;;;;;;;19.43;68.57;98756.44;4947111;28;20148;-93
2022/06/21 00:53:44;;;;;;;6.13;3.33;;;;;;;19.50;68.05;98764.03;4940332;29;20104;-93
2022/06/21 00:56:23;;;;;;;4.95;3.20;;;;;;;19.68;67.01;98778.25;4925162;29;20054;-94
2022/06/21 00:58:48;;;;;;;3.10;2.80;;;;;;;19.68;65.75;98768.13;4940517;29;20023;-93
2022/06/21 01:01:17;;;;;;;4.28;3.25;;;;;;;19.68;68.24;98773.59;4940466;29;20498;-94
2022/06/21 01:03:48;;;;;;;5.22;3.28;;;;;;;19.54;68.99;98756.75;4956028;28;20437;-93
2022/06/21 01:06:24;;;;;;;5.32;3.38;;;;;;;19.46;68.97;98772.13;4924764;29;20398;-93
2022/06/21 01:08:53;;;;;;;6.00;3.60;;;;;;;19.37;71.15;98761.31;4940256;29;20046;-93
2022/06/21 01:11:21;;;;;;;9.00;3.65;;;;;;;19.18;71.47;98756.44;4924618;29;20082;-93
2022/06/21 01:13:48;;;;;;;4.88;3.70;;;;;;;19.15;72.42;98764.50;4924865;29;20027;-93
2022/06/21 01:16:13;;;;;;;6.53;3.88;;;;;;;19.00;73.09;98754.25;4924199;29;20034;-93
2022/06/21 01:18:39;;;;;;;5.25;3.95;;;;;;;18.94;72.96;98749.00;4924474;29;20027;-93
2022/06/21 01:21:04;;;;;;;5.72;4.20;;;;;;;19.09;72.71;98761.22;4939855;29;20027;-93
2022/06/21 01:23:56;;;;;;;7.47;3.58;;;;;;;19.08;72.97;98762.34;4924125;29;20031;-93
2022/06/21 01:26:31;;;;;;;7.78;3.75;;;;;;;19.06;72.83;98770.06;4940156;29;20486;-94
2022/06/21 01:28:56;;;;;;;6.03;3.80;;;;;;;18.83;73.62;98749.81;4940312;29;20027;-93
2022/06/21 01:31:22;;;;;;;6.15;4.03;;;;;;;18.73;74.08;98757.25;4923851;29;20118;-93
2022/06/21 01:33:49;;;;;;;4.85;3.85;;;;;;;18.66;74.04;98751.56;4924196;29;20019;-93
2022/06/21 01:36:23;;;;;;;7.00;3.97;;;;;;;18.68;74.08;98762.94;4924621;29;20401;-94
2022/06/21 01:38:54;;;;;;;6.28;3.88;;;;;;;18.70;74.01;98760.66;4939361;29;20047;-94
2022/06/21 01:41:33;;;;;;;4.93;3.72;;;;;;;18.62;74.39;98760.75;4923881;29;20031;-93
2022/06/21 01:43:59;;;;;;;5.80;4.05;;;;;;;18.67;74.29;98772.25;4939669;29;20434;-94
2022/06/21 01:46:27;;;;;;;7.30;4.20;;;;;;;18.56;74.22;98754.72;4923550;29;20047;-93
2022/06/21 01:48:55;;;;;;;7.35;4.25;;;;;;;18.46;74.72;98742.31;4924014;29;20037;-94
2022/06/21 01:51:30;;;;;;;5.15;3.95;;;;;;;18.45;74.96;98759.00;4923635;29;20019;-93
2022/06/21 01:53:55;;;;;;;4.88;3.88;;;;;;;18.39;73.49;98747.53;4924409;29;20027;-93
2022/06/21 01:56:23;;;;;;;6.15;3.85;;;;;;;18.50;73.48;98750.63;4924099;29;20034;-93
2022/06/21 01:58:52;;;;;;;5.28;3.90;;;;;;;18.55;73.26;98747.66;4939257;29;20548;-94
2022/06/21 02:01:48;;;;;;;6.88;4.20;;;;;;;18.51;73.52;98755.75;4923211;29;20051;-93
2022/06/21 02:04:15;;;;;;;6.93;4.10;;;;;;;18.37;74.11;98747.84;4926886;29;20039;-93
2022/06/21 02:06:41;;;;;;;6.82;4.10;;;;;;;18.35;73.80;98736.47;4939126;29;20027;-93
2022/06/21 02:09:12;;;;;;;5.10;3.75;;;;;;;18.43;73.84;98742.16;4923443;29;20086;-93
2022/06/21 02:12:01;;;;;;;5.15;4.00;;;;;;;18.37;74.06;98764.19;4923957;29;20030;-93
2022/06/21 02:14:30;;;;;;;7.78;3.75;;;;;;;18.30;73.84;98747.59;4945632;29;20057;-93
2022/06/21 02:17:19;;;;;;;4.45;3.72;;;;;;;18.29;73.75;98767.00;4924450;29;20031;-93
2022/06/21 02:19:48;;;;;;;9.75;4.10;;;;;;;18.12;74.00;98755.13;4938862;29;20401;-94
2022/06/21 02:22:17;;;;;;;7.88;4.03;;;;;;;18.07;73.90;98752.59;4939253;29;20545;-93
2022/06/21 02:24:42;;;;;;;10.43;5.03;;;;;;;18.10;73.27;98753.88;4939310;29;20051;-93
2022/06/21 02:27:09;;;;;;;10.15;4.13;;;;;;;17.99;73.67;98748.00;4923017;29;20031;-93
2022/06/21 02:29:34;;;;;;;7.40;4.25;;;;;;;17.96;73.70;98756.88;4938609;29;20034;-93
2022/06/21 02:32:11;;;;;;;5.38;3.75;;;;;;;18.07;72.56;98751.81;4922759;29;20027;-93
2022/06/21 02:34:38;;;;;;;8.35;3.47;;;;;;;18.26;70.49;98754.84;4924999;29;20027;-94
2022/06/21 02:37:03;;;;;;;6.45;3.22;;;;;;;18.39;69.96;98761.16;4938680;29;20046;-93
2022/06/21 02:39:30;;;;;;;7.22;3.72;;;;;;;18.33;70.50;98759.75;4922589;29;20067;-94
2022/06/21 02:42:04;;;;;;;8.40;3.15;;;;;;;18.36;69.30;98749.00;4922940;29;20035;-93
2022/06/21 02:44:35;;;;;;;4.50;3.30;;;;;;;18.49;68.68;98752.56;4923668;29;20039;-94
2022/06/21 02:47:10;;;;;;;7.47;3.47;;;;;;;18.54;68.45;98763.22;4923762;29;20042;-94
2022/06/21 02:49:39;;;;;;;4.22;3.20;;;;;;;18.47;68.75;98743.09;4938572;29;20031;-93
2022/06/21 02:52:13;;;;;;;11.77;3.75;;;;;;;18.54;68.53;98749.59;4922604;29;20118;-93
2022/06/21 02:54:49;;;;;;;8.60;4.43;;;;;;;18.40;69.98;98760.00;4938341;29;20093;-94
2022/06/21 02:57:34;;;;;;;8.88;4.00;;;;;;;18.26;70.70;98752.13;4923658;29;20034;-94
2022/06/21 03:00:00;;;;;;;7.93;3.50;;;;;;;18.13;72.02;98755.91;4938403;29;20486;-94
2022/06/21 03:02:27;;;;;;;6.60;4.20;;;;;;;18.01;72.51;98747.69;4922548;29;20031;-92
2022/06/21 03:04:56;;;;;;;14.10;4.22;;;;;;;17.97;72.65;98737.47;4922237;29;20031;-91
2022/06/21 03:07:27;;;;;;;7.13;3.90;;;;;;;17.90;72.55;98739.91;4922625;29;20489;-92
2022/06/21 03:09:52;;;;;;;4.45;3.55;;;;;;;17.84;73.24;98730.34;4922268;29;20027;-92
2022/06/21 03:12:21;;;;;;;8.52;3.72;;;;;;;17.99;71.98;98734.38;4921405;28;20500;-92
2022/06/21 03:14:48;;;;;;;7.60;3.92;;;;;;;18.07;71.83;98744.41;4922319;28;20055;-92
2022/06/21 03:17:15;;;;;;;9.68;3.92;;;;;;;18.02;72.14;98730.22;4922348;29;20085;-91
2022/06/21 03:19:43;;;;;;;8.38;3.55;;;;;;;18.15;71.02;98738.09;4922612;29;20037;-94
2022/06/21 03:22:31;;;;;;;9.25;3.80;;;;;;;18.10;71.26;98742.97;4938115;29;20102;-92
2022/06/21 03:24:58;;;;;;;5.75;3.67;;;;;;;18.13;70.71;98737.63;4937816;29;20027;-91
2022/06/21 03:27:49;;;;;;;8.73;3.90;;;;;;;18.16;71.16;98734.25;4937711;29;20486;-91
2022/06/21 03:30:16;;;;;;;13.65;4.28;;;;;;;18.08;70.73;98732.41;4953820;29;20031;-91
2022/06/21 03:32:42;;;;;;;9.10;4.38;;;;;;;18.16;70.50;98736.19;4922100;29;20031;-92
2022/06/21 03:35:07;;;;;;;4.78;3.20;;;;;;;18.35;68.28;98739.22;4937724;29;20081;-91
2022/06/21 03:37:39;;;;;;;12.05;3.85;;;;;;;18.31;67.65;98724.66;4918620;29;20047;-91
2022/06/21 03:42:51;;;;;;;7.35;3.55;;;;;;;18.55;66.73;98731.31;4934338;29;20047;-91
2022/06/21 03:45:23;;;;;;;6.18;3.20;;;;;;;18.67;65.92;98736.78;4949853;29;20163;-90
2022/06/21 03:48:09;;;;;;;5.75;3.00;;;;;;;18.77;65.16;98736.34;4934023;29;20103;-90
2022/06/21 03:50:37;;;;;;;13.00;3.75;;;;;;;18.60;66.69;98720.19;4949714;29;20098;-91
2022/06/21 03:53:15;;;;;;;5.57;3.50;;;;;;;18.55;68.67;98728.56;4918150;29;20028;-90
2022/06/21 03:56:00;;;;;;;8.20;4.20;;;;;;;18.20;70.57;98723.50;4949713;28;20486;-89
2022/06/21 03:58:40;;;;;;;7.55;4.10;;;;;;;18.32;70.60;98730.91;4917792;29;20028;-90
2022/06/21 04:01:20;;;;;;;16.38;5.88;;;;;;;18.04;71.52;98706.97;4933590;29;20035;-89
2022/06/21 04:04:07;;;;;;;10.05;5.35;;;;;;;18.34;71.02;98732.19;4917926;29;20401;-91
2022/06/21 04:06:55;;;;;;;10.50;5.75;;;;;;;18.24;69.51;98740.78;4937788;29;20477;-91
2022/06/21 04:09:53;;;;;;;4.93;4.43;;;;;;;18.23;68.56;98738.38;4937131;29;20386;-91
2022/06/21 04:12:27;;;;;;;6.95;3.83;;;;;;;18.16;69.02;98725.28;4952220;29;20039;-91
2022/06/21 04:15:31;;;;;;;13.02;3.90;;;;;;;18.24;69.54;98727.16;4937738;29;20027;-91
2022/06/21 04:17:58;;;;;;;7.03;3.92;;;;;;;18.28;69.73;98735.44;4924506;29;20121;-91
2022/06/21 04:20:50;;;;;;;9.32;4.50;;;;;;;18.24;69.74;98718.97;4933660;29;20022;-91
2022/06/21 04:23:51;;;;;;;13.95;4.65;;;;;;;18.35;68.71;98720.13;4932289;29;20038;-92
2022/06/21 04:26:28;;;;;;;7.28;3.75;;;;;;;18.34;68.36;98707.66;4931304;29;20038;-91
2022/06/21 04:29:13;;;;;;;11.93;4.35;;;;;;;18.41;68.19;98703.53;4925211;29;20032;-95
2022/06/21 04:31:46;;;;;;;5.80;3.72;;;;;;;18.51;67.96;98725.75;4908691;29;20023;-95
2022/06/21 04:34:26;;;;;;;15.90;4.10;;;;;;;18.53;67.51;98728.13;4924535;29;20035;-95
2022/06/21 04:36:56;;;;;;;7.97;3.92;;;;;;;18.57;66.89;98709.94;4911227;29;20062;-94
2022/06/21 04:39:25;;;;;;;10.13;3.40;;;;;;;18.76;66.62;98720.34;4908794;29;20103;-95
2022/06/21 04:41:58;;;;;;;17.63;4.55;;;;;;;18.88;66.61;98730.47;4909608;29;20038;-94
2022/06/21 04:44:33;;;;;;;4.15;3.17;;;;;;;19.08;64.55;98717.88;4941990;29;20020;-96
2022/06/21 04:47:04;;;;;;;7.35;3.50;;;;;;;19.10;64.45;98700.03;4939777;29;20111;-94
2022/06/21 04:49:45;;;;;;;10.60;4.27;;;;;;;19.13;64.28;98698.53;4926000;29;20083;-96
2022/06/21 04:52:20;;;;;;;12.30;4.25;;;;;;;19.23;64.72;98700.03;4908353;29;20046;-96
2022/06/21 04:54:45;;;;;;;13.02;3.60;;;;;;;19.17;64.19;98677.63;4925013;29;20031;-94
2022/06/21 04:57:15;;;;;;;21.48;5.72;;;;;;;19.40;64.71;98699.78;4923279;29;20024;-95
2022/06/21 04:59:45;;;;;;;8.70;4.57;;;;;;;19.34;64.21;98682.03;4925231;29;20450;-94
2022/06/21 05:02:26;;;;;;;7.60;3.80;;;;;;;19.50;64.10;98696.56;4923256;29;20027;-95
2022/06/21 05:05:20;;;;;;;6.22;3.83;;;;;;;19.40;64.67;98675.19;4924318;29;20071;-95
2022/06/21 05:08:12;;;;;;;7.70;3.50;;;;;;;19.59;63.78;98699.19;4922102;29;20122;-95
2022/06/21 05:10:41;;;;;;;8.00;4.15;;;;;;;19.49;64.05;98675.88;4937709;29;20035;-93
2022/06/21 05:13:10;;;;;;;11.68;4.32;;;;;;;19.57;63.34;98679.63;4908089;29;20032;-93
2022/06/21 05:15:38;;;;;;;9.15;3.90;;;;;;;19.58;62.86;98664.81;4924012;29;20038;-93
2022/06/21 05:18:10;;;;;;;9.10;3.85;;;;;;;19.83;62.70;98684.69;4932627;29;20027;-92
2022/06/21 05:20:37;;;;;;;4.88;3.88;;;;;;;19.85;61.54;98678.88;4941033;29;20039;-96
2022/06/21 05:23:04;;;;;;;10.25;5.95;;;;;;;19.95;59.67;98690.09;4927961;29;20042;-95
2022/06/21 05:25:32;;;;;;;14.30;6.00;;;;;;;19.98;60.71;98672.19;4941113;29;20043;-91
2022/06/21 05:28:02;;;;;;;5.85;4.30;;;;;;;20.31;61.73;98702.00;4939705;29;20031;-89
2022/06/21 05:30:36;;;;;;;9.23;4.25;;;;;;;20.54;61.38;98698.69;4937430;29;20015;-94
2022/06/21 05:33:11;;;;;;;11.10;5.20;;;;;;;20.64;60.80;98691.94;4956886;29;20486;-95
2022/06/21 05:35:37;;;;;;;11.82;4.55;;;;;;;20.63;60.81;98682.13;4922889;29;20509;-90
2022/06/21 05:38:10;;;;;;;15.18;6.03;;;;;;;20.81;60.39;98682.56;4934772;29;20514;-91
2022/06/21 05:40:55;;;;;;;10.30;5.38;;;;;;;21.06;59.10;98700.38;4939243;29;20047;-90
2022/06/21 05:43:36;;;;;;;9.75;4.35;;;;;;;21.13;58.96;98688.84;4941887;29;20490;-92
2022/06/21 05:46:05;;;;;;;13.07;4.82;;;;;;;21.11;58.79;98671.97;4941590;29;20031;-92
2022/06/21 05:48:41;;;;;;;18.85;16.88;;;;;;;21.27;58.92;98674.66;4924138;29;20051;-92
2022/06/21 05:51:08;;;;;;;8.93;5.38;;;;;;;21.30;58.43;98676.69;4939259;29;20027;-94
2022/06/21 05:53:39;;;;;;;11.05;4.88;;;;;;;21.30;57.67;98679.44;4939061;29;20023;-92
2022/06/21 05:56:08;;;;;;;11.93;8.60;;;;;;;21.51;57.65;98690.09;4941178;29;20031;-95
2022/06/21 05:58:41;;;;;;;9.48;4.82;;;;;;;21.55;57.31;98683.53;4927480;29;20039;-90
2022/06/21 06:01:15;;;;;;;11.00;5.53;;;;;;;21.58;56.53;98669.13;4924111;29;20031;-92
2022/06/21 06:03:50;;;;;;;11.05;5.22;;;;;;;21.68;55.53;98675.19;4913538;29;20118;-92
2022/06/21 06:06:18;;;;;;;11.95;5.05;;;;;;;21.68;55.59;98665.00;4924300;29;20028;-92
2022/06/21 06:08:46;;;;;;;13.52;5.45;;;;;;;21.68;55.14;98665.00;4939626;29;20027;-91
2022/06/21 06:11:23;;;;;;;9.98;5.28;;;;;;;21.88;55.07;98674.03;4923078;29;20019;-91
2022/06/21 06:13:49;;;;;;;16.42;9.70;;;;;;;22.04;55.28;98687.66;4924170;29;20038;-94
2022/06/21 06:16:37;;;;;;;14.40;6.95;;;;;;;22.23;54.36;98695.09;4938881;29;20489;-93
2022/06/21 06:19:21;;;;;;;12.38;6.95;;;;;;;22.33;54.99;98683.53;4940358;29;20094;-94
2022/06/21 06:21:55;;;;;;;36.10;24.25;;;;;;;22.43;55.09;98675.84;4924685;29;20027;-92
2022/06/21 06:31:45;;;;;;;14.00;8.40;;;;;;;22.85;53.68;98680.47;4956813;29;20071;-94
2022/06/21 06:34:33;;;;;;;14.80;6.10;;;;;;;22.78;53.34;98650.97;4955403;29;20030;-92
2022/06/21 06:43:46;;;;;;;13.70;7.20;;;;;;;23.14;53.21;98674.31;4872099;29;20595;-93
2022/06/21 06:46:37;;;;;;;18.13;7.47;;;;;;;23.46;53.66;98684.97;4888059;29;20040;-92
2022/06/21 06:49:41;;;;;;;20.25;8.82;;;;;;;23.66;53.58;98671.06;4901064;29;20032;-96
2022/06/21 06:52:19;;;;;;;13.38;7.43;;;;;;;23.68;52.21;98661.31;4888902;29;20032;-89
2022/06/21 06:55:28;;;;;;;;;;;;;;;;;;;;;
2022/06/21 06:58:28;;;;;;;18.08;7.68;;;;;;;24.13;51.91;98675.19;4897927;29;20032;-95
2022/06/21 07:01:05;;;;;;;14.35;6.82;;;;;;;24.14;51.37;98649.28;4885133;29;20101;-93
2022/06/21 07:03:37;;;;;;;14.45;6.15;;;;;;;24.30;51.33;98655.34;4871034;29;20055;-95
2022/06/21 07:06:12;;;;;;;13.60;7.05;;;;;;;24.59;51.41;98669.38;4853904;29;20044;-94
2022/06/21 07:08:49;;;;;;;9.95;6.10;;;;;;;24.71;50.51;98669.09;4883830;29;20483;-95
2022/06/21 07:11:58;;;;;;;8.20;5.88;;;;;;;24.68;49.79;98642.34;4931741;29;20044;-96
2022/06/21 07:14:54;;;;;;;12.40;5.55;;;;;;;24.71;49.86;98638.03;4933977;29;20044;-93
2022/06/21 07:18:37;;;;;;;12.75;6.15;;;;;;;25.05;49.50;98666.22;4936194;29;20054;-95
2022/06/21 07:20:50;;;;;;;9.80;7.53;;;;;;;25.06;48.87;98644.97;4943237;29;20115;-94
2022/06/21 07:23:18;;;;;;;18.27;16.20;;;;;;;25.31;43.62;98658.94;4949340;29;20138;-96
2022/06/21 07:25:50;;;;;;;10.48;7.25;;;;;;;25.52;44.56;98666.53;4930317;29;20023;-91
2022/06/21 07:28:25;;;;;;;7.20;3.55;;;;;;;25.67;43.24;98657.16;4942385;29;20031;-91
2022/06/21 07:30:59;;;;;;;6.32;3.15;;;;;;;25.79;42.72;98648.53;4911489;29;20031;-92
2022/06/21 07:33:55;;;;;;;8.18;4.18;;;;;;;26.08;42.19;98658.88;4910390;29;20067;-93
2022/06/21 07:37:16;;;;;;;4.85;2.75;;;;;;;26.29;40.43;98655.38;4910712;29;20094;-92
2022/06/21 07:39:56;;;;;;;9.52;3.72;;;;;;;26.35;40.92;98635.28;4936117;28;20050;-91
2022/06/21 07:46:09;;;;;;;12.00;4.15;;;;;;;26.80;40.28;98630.19;4940888;29;20379;-92
2022/06/21 07:48:53;;;;;;;9.85;4.28;;;;;;;27.13;37.94;98644.75;4887924;29;20044;-91
2022/06/21 07:51:24;;;;;;;3.72;2.60;;;;;;;27.29;34.32;98644.38;4915225;29;20032;-91
2022/06/21 07:53:51;;;;;;;4.88;2.35;;;;;;;27.33;36.01;98627.75;4892227;29;20039;-92
2022/06/21 07:56:32;;;;;;;3.45;2.65;;;;;;;27.48;36.68;98629.28;4912321;29;20126;-95
2022/06/21 07:59:17;;;;;;;5.00;2.70;;;;;;;27.71;35.97;98647.38;4894600;29;20099;-94
2022/06/21 08:08:15;;;;;;;6.18;2.05;;;;;;;28.06;33.05;98640.09;4916267;29;20457;-95
2022/06/21 08:11:06;;;;;;;5.47;3.08;;;;;;;28.30;34.57;98653.00;4895210;29;20030;-96
2022/06/21 08:13:35;;;;;;;7.75;4.18;;;;;;;28.25;34.47;98624.97;4912902;29;20046;-95
2022/06/21 08:16:10;;;;;;;4.78;1.90;;;;;;;28.51;33.24;98645.78;4894861;29;20063;-94
2022/06/21 08:18:41;;;;;;;7.45;2.88;;;;;;;28.59;35.01;98653.63;4917322;29;20130;-94
2022/06/21 08:22:15;;;;;;;2.33;1.70;;;;;;;28.57;32.91;98646.91;4970457;29;20023;-94
2022/06/21 08:25:01;;;;;;;4.95;3.00;;;;;;;28.86;32.87;98666.06;4912852;29;20041;-94
2022/06/21 08:28:11;;;;;;;;;;;;;;;;;;;;;
2022/06/21 08:30:55;;;;;;;9.18;1.83;;;;;;;28.86;31.74;98655.00;4947323;29;20110;-94
2022/06/21 08:34:05;;;;;;;8.00;6.75;;;;;;;28.92;31.98;98640.28;4925278;29;20040;-93
2022/06/21 08:36:32;;;;;;;3.13;1.85;;;;;;;29.01;31.58;98657.22;4935650;29;20039;-91
2022/06/21 08:39:05;;;;;;;3.17;2.30;;;;;;;29.20;31.86;98672.53;4932338;28;20023;-93
2022/06/21 08:42:12;;;;;;;6.00;2.67;;;;;;;29.30;30.57;98668.06;4979893;28;20030;-92
2022/06/21 08:47:54;;;;;;;4.63;1.67;;;;;;;29.17;31.23;98642.84;4963717;28;20455;-95
2022/06/21 08:50:46;;;;;;;3.50;1.77;;;;;;;29.34;30.79;98662.47;4942192;29;20028;-92
2022/06/21 08:53:27;;;;;;;3.38;1.75;;;;;;;29.28;30.27;98664.13;4963342;29;20059;-91
2022/06/21 08:56:11;;;;;;;7.15;2.13;;;;;;;29.20;30.30;98641.25;4970084;28;20043;-92
2022/06/21 08:58:52;;;;;;;3.75;1.70;;;;;;;29.43;30.38;98676.66;4947777;28;20046;-92
2022/06/21 09:02:02;;;;;;;5.05;1.98;;;;;;;29.40;30.15;98649.72;4982327;28;20085;-94
2022/06/21 09:04:46;;;;;;;7.10;1.92;;;;;;;29.57;31.09;98668.16;4966730;28;20042;-94
2022/06/21 09:07:24;;;;;;;2.85;1.80;;;;;;;29.57;30.72;98659.84;4980414;28;20058;-95
2022/06/21 09:10:29;;;;;;;8.48;2.92;;;;;;;29.62;30.45;98653.03;4979408;28;20050;-94
2022/06/21 09:13:21;;;;;;;8.52;2.10;;;;;;;29.65;30.56;98637.56;4982118;28;20540;-95
2022/06/21 09:16:33;;;;;;;3.03;1.80;;;;;;;29.67;29.48;98632.38;4949192;28;20043;-94
2022/06/21 09:19:25;;;;;;;3.13;1.85;;;;;;;29.85;29.61;98646.06;4966244;28;20038;-95
2022/06/21 09:21:53;;;;;;;5.55;2.00;;;;;;;29.92;30.22;98652.28;4961090;29;20051;-91
2022/06/21 09:24:31;;;;;;;4.88;1.77;;;;;;;29.95;29.19;98653.47;4960676;29;20082;-93
2022/06/21 09:34:07;;;;;;;3.45;1.75;;;;;;;30.06;30.85;98644.97;4925330;29;20117;-96
2022/06/21 09:36:40;;;;;;;1.90;1.70;;;;;;;30.08;29.39;98632.25;4907727;29;20067;-92
2022/06/21 09:39:24;;;;;;;8.30;1.88;;;;;;;30.31;29.87;98655.75;4908002;29;20036;-96
2022/06/21 09:42:07;;;;;;;3.05;1.85;;;;;;;30.35;29.19;98651.69;4926922;29;20048;-96
2022/06/21 09:48:34;;;;;;;2.92;1.70;;;;;;;30.19;29.89;98618.97;5219324;23;20085;-95
2022/06/21 09:54:27;;;;;;;2.35;1.70;;;;;;;30.38;29.40;98634.22;5180122;23;20054;-92
2022/06/21 09:57:26;;;;;;;4.32;2.08;;;;;;;30.40;29.50;98622.66;4966436;28;20042;-95
2022/06/21 10:00:19;;;;;;;2.63;1.60;;;;;;;30.70;28.10;98638.47;4946598;28;20050;-94
2022/06/21 10:03:39;;;;;;;2.30;1.48;;;;;;;30.78;27.91;98636.34;4983316;28;20038;-96
2022/06/21 10:06:11;;;;;;;2.72;1.48;;;;;;;30.76;26.98;98633.97;4922855;29;20024;-93
2022/06/21 10:09:11;;;;;;;4.10;1.75;;;;;;;30.91;27.59;98625.44;4987879;28;20060;-94
2022/06/21 10:11:45;;;;;;;5.25;1.50;;;;;;;30.97;27.30;98629.28;4986256;28;20026;-93
2022/06/21 10:18:01;;;;;;;4.18;1.90;;;;;;;31.04;28.56;98611.69;5020929;28;20037;-95
2022/06/21 10:20:51;;;;;;;5.68;1.80;;;;;;;31.18;26.94;98630.88;5019454;28;20025;-92
2022/06/21 10:23:17;;;;;;;3.28;1.30;;;;;;;31.24;26.43;98617.28;5001500;28;20030;-92
2022/06/21 10:26:24;;;;;;;9.30;2.13;;;;;;;31.32;27.70;98610.38;4997065;28;20578;-95
2022/06/21 10:29:05;;;;;;;3.63;1.73;;;;;;;31.34;26.55;98596.81;4978379;28;20030;-94
2022/06/21 10:32:10;;;;;;;5.38;1.95;;;;;;;31.51;26.57;98608.81;4979294;28;20025;-95
2022/06/21 10:35:07;;;;;;;7.18;1.83;;;;;;;31.58;27.00;98601.09;5000188;28;20018;-92
2022/06/21 10:37:42;;;;;;;2.55;1.52;;;;;;;31.70;27.20;98593.31;4987118;28;20040;-91
2022/06/21 10:40:51;;;;;;;;;;;;;;;;;;;;;
2022/06/21 10:44:03;;;;;;;4.63;3.45;;;;;;;31.83;27.45;98594.19;4982180;28;20114;-95
2022/06/21 10:46:44;;;;;;;5.95;2.10;;;;;;;31.75;26.25;98588.03;4963773;28;20433;-89
2022/06/21 10:49:22;;;;;;;5.88;2.60;;;;;;;31.69;27.27;98586.16;4972664;28;20048;-89
2022/06/21 10:51:53;;;;;;;5.70;2.60;;;;;;;31.64;26.84;98581.88;4971025;28;20120;-90
2022/06/21 10:54:55;;;;;;;7.13;2.90;;;;;;;31.71;27.03;98586.50;4973026;28;20126;-91
2022/06/21 10:57:37;;;;;;;3.63;2.65;;;;;;;31.64;26.88;98581.88;4957862;28;20110;-95
2022/06/21 11:01:21;;;;;;;4.72;2.90;;;;;;;31.69;27.79;98575.03;4944964;28;20038;-95
2022/06/21 11:04:04;;;;;;;7.15;3.22;;;;;;;31.77;28.06;98562.50;4943137;29;20054;-91
2022/06/21 11:06:55;;;;;;;7.68;4.07;;;;;;;31.72;27.94;98552.69;4902426;29;20028;-92
2022/06/21 11:09:38;;;;;;;5.05;2.78;;;;;;;31.74;28.17;98547.47;4931309;28;20043;-92
2022/06/21 11:15:30;;;;;;;;;;;;;;;32.06;28.47;98564.69;5014919;28;20088;-90
2022/06/21 11:18:11;;;;;;;;;;;;;;;32.15;29.54;98562.88;4997125;28;19913;-89
2022/06/21 11:20:58;;;;;;;5.25;2.60;;;;;;;32.21;28.56;98536.06;4997488;28;19918;-90
2022/06/21 11:23:55;;;;;;;9.50;3.17;;;;;;;32.51;28.78;98572.34;4983838;28;20118;-92
2022/06/21 11:26:42;;;;;;;5.82;2.92;;;;;;;32.47;27.89;98574.44;4995718;28;20024;-91
2022/06/21 11:29:37;;;;;;;5.60;3.55;;;;;;;32.31;28.10;98567.66;4995640;28;20034;-94
2022/06/21 11:32:23;;;;;;;10.00;3.70;;;;;;;32.37;28.71;98549.19;4992269;28;20064;-94
2022/06/21 11:35:42;;;;;;;61.65;41.97;;;;;;;32.39;28.94;98548.75;4995960;28;20037;-94
2022/06/21 11:38:47;;;;;;;6.65;3.35;;;;;;;32.44;28.94;98531.50;4900004;29;20036;-94
2022/06/21 11:44:31;;;;;;;9.77;4.63;;;;;;;32.47;29.76;98552.13;4986596;28;20029;-95
2022/06/21 11:47:01;;;;;;;9.23;4.03;;;;;;;32.40;29.84;98531.59;4968438;28;20030;-95
2022/06/21 11:50:01;;;;;;;7.05;4.05;;;;;;;32.53;28.93;98533.66;4964971;28;20034;-95
2022/06/21 11:53:07;;;;;;;6.40;4.28;;;;;;;32.54;29.39;98522.13;4983520;28;20038;-93
2022/06/21 11:55:54;;;;;;;10.05;4.55;;;;;;;32.70;29.78;98526.09;4983647;28;20484;-96
2022/06/21 11:59:13;;;;;;;6.90;4.28;;;;;;;32.57;29.41;98521.22;4986805;28;20029;-94
2022/06/21 12:02:33;;;;;;;8.27;4.05;;;;;;;32.67;29.86;98508.22;4953543;29;20047;-96
2022/06/21 12:05:30;;;;;;;;;;;;;;;;;;;;;
2022/06/21 12:08:12;;;;;;;9.10;4.28;;;;;;;32.90;28.63;98517.59;4948241;29;20065;-93
2022/06/21 12:10:52;;;;;;;11.05;4.72;;;;;;;32.83;28.98;98529.69;4944763;29;20067;-94
2022/06/21 12:13:39;;;;;;;10.18;4.38;;;;;;;32.95;28.71;98526.16;4940599;29;20035;-95
2022/06/21 12:16:29;;;;;;;7.63;4.38;;;;;;;33.10;28.73;98523.81;4945233;29;20118;-96
2022/06/21 12:19:01;;;;;;;12.40;4.28;;;;;;;32.92;29.74;98496.38;4941132;29;20027;-96
2022/06/21 12:21:32;;;;;;;8.70;4.22;;;;;;;33.22;29.75;98509.09;4923983;29;20079;-96
2022/06/21 12:24:01;;;;;;;7.18;4.30;;;;;;;33.20;29.72;98505.19;4909364;29;20073;-94
2022/06/21 12:26:27;;;;;;;10.02;4.25;;;;;;;33.37;29.52;98508.66;4922431;29;20047;-93
2022/06/21 12:28:54;;;;;;;11.40;4.70;;;;;;;33.40;29.39;98508.56;4907326;29;20057;-96
2022/06/21 12:31:26;;;;;;;12.70;4.50;;;;;;;33.57;29.56;98500.88;4925452;28;20030;-96
2022/06/21 12:34:04;;;;;;;13.10;4.28;;;;;;;33.48;28.89;98495.19;4981321;28;20026;-93
2022/06/21 12:36:47;;;;;;;8.98;4.70;;;;;;;33.42;29.49;98497.75;4964963;28;20448;-95
2022/06/21 12:39:17;;;;;;;9.25;4.00;;;;;;;33.36;29.19;98493.16;4969144;28;20026;-95
2022/06/21 12:42:07;;;;;;;13.43;4.30;;;;;;;33.34;30.05;98515.91;4985453;28;20029;-95
2022/06/21 12:45:08;;;;;;;14.07;4.47;;;;;;;33.36;29.96;98523.84;5021676;28;20110;-95
2022/06/21 12:48:09;;;;;;;;;;;;;;;;;;;;;
2022/06/21 12:51:21;;;;;;;10.65;4.32;;;;;;;33.57;29.98;98500.88;5012480;28;20082;-92
2022/06/21 12:54:15;;;;;;;10.23;4.82;;;;;;;33.56;29.65;98512.50;4970877;28;20532;-95
2022/06/21 12:57:21;;;;;;;15.48;4.63;;;;;;;33.50;30.09;98517.06;4977981;28;20057;-94
2022/06/21 12:59:58;;;;;;;10.48;4.68;;;;;;;33.34;30.16;98506.78;4979091;28;20030;-94
2022/06/21 13:03:19;;;;;;;13.80;9.50;;;;;;;33.20;31.03;98519.94;4971596;28;20102;-95
2022/06/21 13:06:22;;;;;;;10.52;4.20;;;;;;;33.10;30.50;98481.97;4966143;29;20034;-96
2022/06/21 13:09:24;;;;;;;12.05;7.40;;;;;;;33.30;31.01;98492.16;4961351;29;20038;-95
2022/06/21 13:12:17;;;;;;;8.02;4.03;;;;;;;33.18;30.88;98522.38;4964977;29;20062;-93
2022/06/21 13:15:04;;;;;;;11.05;4.35;;;;;;;33.09;30.92;98525.03;4969765;28;20034;-94
2022/06/21 13:17:58;;;;;;;12.35;4.30;;;;;;;33.29;30.84;98513.69;4980759;28;20030;-95
2022/06/21 13:20:31;;;;;;;13.52;4.00;;;;;;;32.87;31.62;98484.97;4961036;28;20030;-94
2022/06/21 13:23:31;;;;;;;10.13;4.28;;;;;;;32.97;31.92;98515.34;4963101;28;20022;-94
2022/06/21 13:26:11;;;;;;;15.25;4.35;;;;;;;32.98;32.27;98488.25;4958342;28;20034;-95
2022/06/21 13:28:53;;;;;;;11.70;4.05;;;;;;;32.76;32.29;98511.16;4959996;28;20042;-93
2022/06/21 13:32:00;;;;;;;11.48;4.68;;;;;;;32.79;32.81;98504.72;4944034;29;20090;-94